HTDA

Julius Nyerere International Airport

Dar es Salaam, Tanzania
METAR HTDA 221400Z 12003KT 9999 FEW014 SCT015 FEW016CB BKN080 27/25 Q1010 NOSIG
Observed Flight Rules
Apr-22 @ 14:00 UTC (8 hours ago) Visual Flight Rules
Wind Visibility Clouds
120° at 3 knots 10,000+ meters
  • Few at 1,400' AGL
  • Scattered at 1,500' AGL
  • Few at 1,600' AGL
  • Broken at 8,000' AGL
Temperatures Readings
Current 27°C / 81°F
Dewpoint 25°C / 77°F
Humidity 89%
Altimeter 29.82" Hg
Pressure 1010 hPa
Elevation 55
METAR HTDA 221400Z 12003KT 9999 FEW014 SCT015 FEW016CB BKN080 27/25 Q1010 NOSIG
Observed Flight Rules
Apr-22 @ 14:00 UTC
(8 hours ago)
VFR
Wind Visibility
120° at 3 knots 10,000+ meters
Clouds
  • Few at 1,400' AGL
  • Scattered at 1,500' AGL
  • Few at 1,600' AGL
  • Broken at 8,000' AGL
Temperature Dewpoint
27°C / 81°F 25°C / 77°F
Humidity Altimeter Pressure
89% 29.82" Hg 1010 hPa